< < Back
Terminal Aerodrome Forecast


Current Version              Previous Versions:   1  2  3  4  5  6  7  8  9  

Terminal Aerodrome Forecast

176
FTUS44 KBMX 272034 AAA
TAFANB
TAF AMD
KANB 272034Z 2721/2818 31010G18KT P6SM BKN060
     FM280400 32006KT P6SM SCT100=



Latest METAR

762
SAUS70 KWBC 281600 RRC
MTRANB
METAR KANB 281553Z AUTO 34007KT 300V040 10SM CLR 06/M07 A3023 RMK AO2
SLP244 T00611067


USA.gov is the U.S. government's official web portal to all federal, state and local government web resources and services.